Time;durP1;ratioP1;P1;durP2;ratioP2;P2;SDS_P1;SDS_P2;PMS_P1;PMS_P2;Temp;Humidity;BMP_temperature;BMP_pressure;BME280_temperature;BME280_humidity;BME280_pressure;Samples;Min_cycle;Max_cycle;Signal;HPM_P1;HPM_P2
2023/09/23 06:52:13;;;;;;;211.02;86.50;;;12.10;99.90;;;;;;5728150;23;20035;-88
2023/09/23 06:54:39;;;;;;;138.10;71.60;;;12.10;99.90;;;;;;4940585;29;20778;-87
2023/09/23 06:57:04;;;;;;;213.00;81.90;;;12.10;99.90;;;;;;4925190;29;20405;-88
2023/09/23 06:59:30;;;;;;;261.52;91.68;;;12.20;99.90;;;;;;4921734;29;20041;-87
2023/09/23 07:01:56;;;;;;;119.65;67.00;;;12.20;99.90;;;;;;4917927;29;20084;-89
2023/09/23 07:04:22;;;;;;;158.77;71.05;;;12.20;99.90;;;;;;4934781;29;20078;-88
2023/09/23 15:15:17;;;;;;;3.10;1.00;;;16.70;99.90;;;;;;4969663;28;20050;-81
2023/09/23 15:17:42;;;;;;;3.05;1.00;;;16.60;99.90;;;;;;4940026;28;20552;-81
2023/09/23 15:20:10;;;;;;;4.47;0.98;;;16.60;99.90;;;;;;4947400;28;20045;-81
2023/09/23 15:22:37;;;;;;;7.53;1.25;;;16.60;99.90;;;;;;4968671;28;20125;-81
2023/09/23 15:25:03;;;;;;;2.58;0.90;;;16.50;99.90;;;;;;4953984;28;20386;-81
2023/09/23 16:58:38;;;;;;;2.47;1.10;;;15.60;99.90;;;;;;3840223;23;21506;-83
2023/09/23 17:01:03;;;;;;;5.13;1.20;;;15.50;99.90;;;;;;4923336;29;20050;-83
2023/09/23 17:03:29;;;;;;;5.80;1.35;;;15.50;99.90;;;;;;4945923;29;20043;-82
2023/09/23 17:05:55;;;;;;;3.45;1.10;;;15.40;99.90;;;;;;4937849;29;20118;-83
2023/09/23 17:08:20;;;;;;;8.02;1.85;;;15.30;99.90;;;;;;4937756;29;20046;-83
2023/09/23 17:10:46;;;;;;;4.85;1.40;;;15.20;99.90;;;;;;4943782;23;20087;-77
2023/09/23 17:13:14;;;;;;;3.95;1.00;;;15.20;99.90;;;;;;4921692;29;20038;-77
2023/09/23 17:15:40;;;;;;;4.13;1.23;;;15.10;99.90;;;;;;4928338;29;20049;-77
2023/09/23 17:18:07;;;;;;;3.28;1.10;;;15.10;99.90;;;;;;4937377;29;20039;-77
2023/09/23 17:20:33;;;;;;;6.60;1.98;;;15.10;99.90;;;;;;4937027;28;20051;-78
2023/09/23 17:22:59;;;;;;;9.32;1.75;;;15.00;99.90;;;;;;4935431;29;20512;-77
2023/09/23 17:25:25;;;;;;;4.47;1.30;;;15.00;99.90;;;;;;4934769;29;20134;-77
2023/09/23 17:27:51;;;;;;;4.60;1.23;;;14.90;99.90;;;;;;4941931;29;20490;-77
2023/09/23 17:30:17;;;;;;;4.38;1.58;;;14.90;99.90;;;;;;4935124;29;20027;-77
2023/09/23 17:32:42;;;;;;;9.63;2.28;;;14.80;99.90;;;;;;4936122;29;20118;-77
2023/09/23 17:35:08;;;;;;;5.60;1.50;;;14.80;99.90;;;;;;4920110;29;20126;-77
2023/09/23 17:37:34;;;;;;;4.90;1.40;;;14.70;99.90;;;;;;4936406;29;20050;-77
2023/09/23 17:39:59;;;;;;;5.63;1.50;;;14.70;99.90;;;;;;4935613;29;20082;-77
2023/09/23 17:42:28;;;;;;;5.35;1.67;;;14.70;99.90;;;;;;4935212;28;20043;-77
2023/09/23 17:44:53;;;;;;;4.07;1.85;;;14.60;99.90;;;;;;4928114;29;20050;-76
2023/09/23 17:47:19;;;;;;;4.97;1.48;;;14.60;99.90;;;;;;4935290;29;20047;-76
2023/09/23 17:49:44;;;;;;;3.85;1.83;;;14.50;99.90;;;;;;4934912;29;20039;-76
2023/09/23 17:52:10;;;;;;;5.35;1.70;;;14.40;99.90;;;;;;4930146;29;20039;-76
2023/09/23 17:54:35;;;;;;;4.95;1.80;;;14.40;99.90;;;;;;4932079;29;20035;-76
2023/09/23 17:57:01;;;;;;;5.22;2.00;;;14.30;99.90;;;;;;4933754;29;20412;-76
2023/09/23 17:59:28;;;;;;;3.90;1.98;;;14.20;99.90;;;;;;4934426;29;20039;-76
2023/09/23 18:01:53;;;;;;;5.82;1.95;;;14.20;99.90;;;;;;4929422;29;20050;-76
2023/09/23 18:04:19;;;;;;;5.38;2.33;;;14.10;99.90;;;;;;4944490;29;20042;-77
2023/09/23 18:06:45;;;;;;;5.13;2.10;;;14.00;99.90;;;;;;4944509;29;20042;-79
2023/09/23 18:09:10;;;;;;;4.47;1.90;;;13.90;99.90;;;;;;4919184;28;20405;-77
2023/09/23 18:11:37;;;;;;;6.28;2.58;;;13.80;99.90;;;;;;4942746;28;20038;-77
2023/09/23 18:14:04;;;;;;;5.55;3.17;;;13.80;99.90;;;;;;4938870;29;20106;-77
2023/09/23 18:16:30;;;;;;;4.03;2.20;;;13.70;99.90;;;;;;4934137;28;20090;-76
2023/09/23 18:18:56;;;;;;;3.45;1.90;;;13.70;99.90;;;;;;4938390;29;20066;-76
2023/09/23 18:21:23;;;;;;;5.38;2.40;;;13.60;99.90;;;;;;4943300;28;20489;-77
2023/09/23 18:23:49;;;;;;;7.60;2.35;;;13.60;99.90;;;;;;4947372;29;20047;-77
2023/09/23 18:26:15;;;;;;;4.50;1.70;;;13.50;99.90;;;;;;4917836;29;20113;-77
2023/09/23 18:28:41;;;;;;;4.13;1.98;;;13.40;99.90;;;;;;4933797;29;20047;-77
2023/09/23 18:31:06;;;;;;;4.78;2.20;;;13.40;99.90;;;;;;4947518;28;20054;-78
2023/09/23 18:33:32;;;;;;;7.00;2.25;;;13.30;99.90;;;;;;4951725;29;20046;-77
2023/09/23 18:35:58;;;;;;;5.85;2.47;;;13.30;99.90;;;;;;4926080;28;20090;-77
2023/09/23 18:38:24;;;;;;;6.88;3.50;;;13.20;99.90;;;;;;4932059;29;20069;-76
2023/09/23 18:40:51;;;;;;;5.75;3.75;;;13.20;99.90;;;;;;4940768;29;20042;-76
2023/09/23 18:43:17;;;;;;;5.90;3.58;;;13.20;99.90;;;;;;4933983;29;20503;-77
2023/09/23 18:45:43;;;;;;;4.25;2.90;;;13.10;99.90;;;;;;4933347;29;20043;-77
2023/09/23 18:48:08;;;;;;;5.15;2.50;;;13.10;99.90;;;;;;4936308;29;20047;-76
2023/09/23 18:50:34;;;;;;;5.90;2.50;;;13.00;99.90;;;;;;4942191;28;20035;-76
2023/09/23 18:53:00;;;;;;;5.30;2.90;;;13.00;99.90;;;;;;4933761;29;20510;-76
2023/09/23 18:55:25;;;;;;;6.43;3.45;;;12.90;99.90;;;;;;4919024;29;20039;-77
2023/09/23 18:57:52;;;;;;;3.40;2.60;;;12.90;99.90;;;;;;4933569;29;20486;-77
2023/09/23 19:00:19;;;;;;;5.43;3.03;;;12.80;99.90;;;;;;4933772;29;20054;-76
2023/09/23 19:02:48;;;;;;;5.90;3.17;;;12.70;99.90;;;;;;4935498;29;20042;-78
2023/09/23 19:05:14;;;;;;;3.75;3.05;;;12.70;99.90;;;;;;4932290;29;20065;-77
2023/09/23 19:07:39;;;;;;;5.25;3.30;;;12.60;99.90;;;;;;4933326;29;20047;-77
2023/09/23 19:10:06;;;;;;;5.50;3.95;;;12.60;99.90;;;;;;4930588;29;20043;-77
2023/09/23 19:12:33;;;;;;;6.20;4.03;;;12.60;99.90;;;;;;4937925;29;20386;-77
2023/09/23 19:14:59;;;;;;;5.57;4.50;;;12.50;99.90;;;;;;4947708;29;20035;-77
2023/09/23 19:17:25;;;;;;;6.10;5.00;;;12.50;99.90;;;;;;4942637;29;20084;-77
2023/09/23 19:19:51;;;;;;;8.32;4.70;;;12.50;99.90;;;;;;4929894;29;20043;-78
2023/09/23 19:22:16;;;;;;;4.93;4.18;;;12.50;99.90;;;;;;4947016;29;20039;-77
2023/09/23 19:24:42;;;;;;;8.68;6.15;;;12.50;99.90;;;;;;4930921;29;20094;-77
2023/09/23 19:27:08;;;;;;;7.05;4.78;;;12.50;99.90;;;;;;4940610;29;20047;-77
2023/09/23 19:29:34;;;;;;;6.28;5.70;;;12.50;99.90;;;;;;4940580;29;20122;-77
2023/09/23 19:32:00;;;;;;;6.70;5.45;;;12.60;99.90;;;;;;4921093;29;20039;-77
2023/09/23 19:34:26;;;;;;;5.53;4.95;;;12.60;99.90;;;;;;4920420;29;20503;-77
2023/09/23 19:36:55;;;;;;;7.57;5.35;;;12.70;99.90;;;;;;4922331;29;20061;-77
2023/09/23 19:39:22;;;;;;;7.30;6.13;;;12.70;99.90;;;;;;4922793;29;20498;-77
2023/09/23 19:41:48;;;;;;;7.75;6.90;;;12.80;99.90;;;;;;4922376;29;20039;-77
2023/09/23 19:44:14;;;;;;;7.75;5.85;;;12.80;99.90;;;;;;4937172;29;20040;-77
2023/09/23 19:46:40;;;;;;;9.02;6.82;;;12.90;99.90;;;;;;4935754;29;20422;-77
2023/09/23 19:49:05;;;;;;;6.45;5.70;;;12.90;99.90;;;;;;4941161;29;20144;-79
2023/09/23 19:51:32;;;;;;;7.05;5.35;;;12.90;99.90;;;;;;4938157;29;20421;-79
2023/09/23 19:53:58;;;;;;;7.22;5.63;;;12.90;99.90;;;;;;4937057;29;20039;-79
2023/09/23 19:56:24;;;;;;;6.43;5.72;;;13.00;99.90;;;;;;4919101;29;20070;-79
2023/09/23 19:58:50;;;;;;;7.30;6.47;;;13.00;99.90;;;;;;4921829;29;20035;-79
2023/09/23 20:01:16;;;;;;;6.47;5.63;;;13.00;99.90;;;;;;4938138;28;20058;-79
2023/09/23 20:03:43;;;;;;;7.90;6.85;;;13.00;99.90;;;;;;4938403;29;20054;-79
2023/09/23 20:06:09;;;;;;;13.18;8.90;;;13.10;99.90;;;;;;4920436;29;20051;-79
2023/09/23 20:08:35;;;;;;;13.25;9.23;;;13.10;99.90;;;;;;4936616;29;20055;-79
2023/09/23 20:11:01;;;;;;;11.90;8.75;;;13.10;99.90;;;;;;4937543;29;20043;-79
2023/09/23 20:13:27;;;;;;;7.78;6.32;;;13.20;99.90;;;;;;4921472;29;20031;-79
2023/09/23 20:15:53;;;;;;;16.52;10.48;;;13.20;99.90;;;;;;4938994;29;20050;-79
2023/09/23 20:18:18;;;;;;;8.90;8.00;;;13.20;99.90;;;;;;4945735;29;20039;-79
2023/09/23 20:20:47;;;;;;;11.38;9.38;;;13.20;99.90;;;;;;4936324;28;20039;-79
2023/09/23 20:23:14;;;;;;;8.63;7.78;;;13.30;99.90;;;;;;4920693;29;20050;-79
2023/09/23 20:25:40;;;;;;;8.88;7.28;;;13.30;99.90;;;;;;4929224;29;20035;-80
2023/09/23 20:28:07;;;;;;;9.60;8.60;;;13.40;99.90;;;;;;4927939;29;20573;-79
2023/09/23 20:30:33;;;;;;;18.27;10.90;;;13.40;99.90;;;;;;4932886;28;20556;-79
2023/09/23 20:32:59;;;;;;;8.10;6.93;;;13.40;99.90;;;;;;4926102;29;20071;-79
2023/09/23 20:35:25;;;;;;;11.70;9.00;;;13.40;99.90;;;;;;4939363;29;20067;-79
2023/09/23 20:37:51;;;;;;;11.93;8.60;;;13.40;99.90;;;;;;4936743;29;20415;-79
2023/09/23 20:40:17;;;;;;;9.27;6.53;;;13.40;99.90;;;;;;4936959;29;20422;-79
2023/09/23 20:42:43;;;;;;;11.25;7.10;;;13.40;99.90;;;;;;4945600;29;20086;-79
2023/09/23 20:45:11;;;;;;;14.07;7.13;;;13.40;99.90;;;;;;4936077;29;20071;-79
2023/09/23 20:47:38;;;;;;;9.88;5.43;;;13.40;99.90;;;;;;4946123;29;20046;-79
2023/09/23 20:50:05;;;;;;;9.35;6.78;;;13.40;99.90;;;;;;4938198;29;20047;-79
2023/09/23 20:52:31;;;;;;;6.88;5.45;;;13.40;99.90;;;;;;4935833;29;20054;-79
2023/09/23 20:54:57;;;;;;;7.15;6.18;;;13.40;99.90;;;;;;4942904;29;20046;-79
2023/09/23 20:57:23;;;;;;;8.52;5.10;;;13.40;99.90;;;;;;4928881;29;20039;-80
2023/09/23 20:59:49;;;;;;;8.10;6.00;;;13.40;99.90;;;;;;4942581;29;20093;-80
2023/09/23 21:02:16;;;;;;;10.50;7.32;;;13.40;99.90;;;;;;4937498;29;20236;-79
2023/09/23 21:04:42;;;;;;;9.95;6.13;;;13.40;99.90;;;;;;4953221;29;20070;-79
2023/09/23 21:07:10;;;;;;;11.55;6.55;;;13.40;99.90;;;;;;4946550;29;20054;-79
2023/09/23 21:09:36;;;;;;;10.27;6.78;;;13.40;99.90;;;;;;4938639;29;20626;-79
2023/09/23 21:12:03;;;;;;;12.95;7.13;;;13.40;99.90;;;;;;4936774;29;20042;-79
2023/09/23 21:14:29;;;;;;;8.93;6.35;;;13.40;99.90;;;;;;4940412;29;20039;-79
2023/09/23 21:16:55;;;;;;;13.35;8.27;;;13.40;99.90;;;;;;4927390;29;20043;-79
2023/09/23 21:19:21;;;;;;;13.05;9.27;;;13.40;99.90;;;;;;4941644;29;20405;-79
2023/09/23 21:21:49;;;;;;;9.07;7.03;;;13.40;99.90;;;;;;4931302;29;20035;-79
2023/09/23 21:24:15;;;;;;;8.05;6.82;;;13.40;99.90;;;;;;4952525;29;20054;-79
2023/09/23 21:26:41;;;;;;;11.55;8.65;;;13.40;99.90;;;;;;4948655;29;20077;-79
2023/09/23 21:29:07;;;;;;;12.80;8.80;;;13.40;99.90;;;;;;4934183;29;20084;-79
2023/09/23 21:31:33;;;;;;;12.50;8.27;;;13.40;99.90;;;;;;4938348;29;20043;-79
2023/09/23 21:33:58;;;;;;;18.60;9.25;;;13.30;99.90;;;;;;4929047;29;20082;-80
2023/09/23 21:36:24;;;;;;;10.13;6.70;;;13.30;99.90;;;;;;4938754;29;20058;-80
2023/09/23 21:38:50;;;;;;;11.27;8.50;;;13.20;99.90;;;;;;4939182;29;20039;-80
2023/09/23 21:41:15;;;;;;;10.43;7.90;;;13.20;99.90;;;;;;4921802;29;20086;-79
2023/09/23 21:43:41;;;;;;;14.98;9.18;;;13.10;99.90;;;;;;4930953;29;20047;-80
2023/09/23 21:46:07;;;;;;;7.57;6.25;;;13.10;99.90;;;;;;4922244;29;20486;-79
2023/09/23 21:48:33;;;;;;;11.00;8.68;;;13.00;99.90;;;;;;4946837;29;20038;-79
2023/09/23 21:51:00;;;;;;;10.13;6.90;;;12.90;99.90;;;;;;4926389;29;20041;-79
2023/09/23 21:53:27;;;;;;;12.10;7.57;;;12.90;99.90;;;;;;4932118;29;20130;-79
2023/09/23 21:55:56;;;;;;;10.43;7.55;;;12.90;99.90;;;;;;4941266;29;20050;-80
2023/09/23 21:58:21;;;;;;;10.18;8.77;;;12.80;99.90;;;;;;4925396;29;20142;-79
2023/09/23 22:00:47;;;;;;;8.73;7.20;;;12.80;99.90;;;;;;4941150;29;20070;-79
2023/09/23 22:03:13;;;;;;;13.55;9.07;;;12.70;99.90;;;;;;4939262;29;20039;-79
2023/09/23 22:05:39;;;;;;;12.82;8.30;;;12.60;99.90;;;;;;4949065;29;20078;-79
2023/09/23 22:08:05;;;;;;;21.75;11.82;;;12.60;99.90;;;;;;4940188;29;20440;-79
2023/09/23 22:10:30;;;;;;;10.90;6.80;;;12.60;99.90;;;;;;4941058;28;20068;-79
2023/09/23 22:12:56;;;;;;;25.83;11.73;;;12.60;99.90;;;;;;4943558;29;20047;-79
2023/09/23 22:15:26;;;;;;;24.90;11.48;;;12.50;99.90;;;;;;4948838;29;20047;-79
2023/09/23 22:17:53;;;;;;;16.90;9.45;;;12.50;99.90;;;;;;4955097;29;20038;-79
2023/09/23 22:20:20;;;;;;;11.48;8.15;;;12.40;99.90;;;;;;4947954;29;20121;-79
2023/09/23 22:22:46;;;;;;;15.15;9.95;;;12.40;99.90;;;;;;4955846;28;20449;-79
2023/09/23 22:25:20;;;;;;;17.08;11.23;;;12.30;99.90;;;;;;4949213;29;20071;-79
2023/09/23 22:27:46;;;;;;;31.73;17.15;;;12.30;99.90;;;;;;4926195;29;20517;-79
2023/09/23 22:30:18;;;;;;;10.30;9.18;;;12.30;99.90;;;;;;4935626;29;20047;-79
2023/09/23 22:32:47;;;;;;;11.20;8.13;;;12.30;99.90;;;;;;4926539;29;20035;-79
2023/09/23 22:35:13;;;;;;;21.20;11.18;;;12.30;99.90;;;;;;4951410;29;20047;-79
2023/09/23 22:37:42;;;;;;;19.92;10.88;;;12.20;99.90;;;;;;4943564;29;20058;-79
2023/09/23 22:40:16;;;;;;;17.75;11.73;;;12.20;99.90;;;;;;4938214;29;20047;-79
2023/09/23 22:42:44;;;;;;;12.45;10.10;;;12.10;99.90;;;;;;4909682;29;20047;-79
2023/09/23 22:45:12;;;;;;;24.42;13.30;;;12.00;99.90;;;;;;4944250;29;20150;-79
2023/09/23 22:47:47;;;;;;;9.90;7.25;;;12.00;99.90;;;;;;4922079;29;20110;-79
2023/09/23 22:50:24;;;;;;;10.88;7.57;;;11.90;99.90;;;;;;4945653;29;20190;-79
2023/09/23 22:52:50;;;;;;;8.13;7.22;;;11.90;99.90;;;;;;4918811;29;20047;-79
2023/09/23 22:55:16;;;;;;;16.75;9.93;;;11.80;99.90;;;;;;4956926;29;20055;-79
2023/09/23 22:57:43;;;;;;;17.67;11.25;;;11.70;99.90;;;;;;4959731;29;20417;-79
2023/09/23 23:00:12;;;;;;;12.88;9.27;;;11.70;99.90;;;;;;4934054;29;20485;-79
2023/09/23 23:02:38;;;;;;;30.33;14.63;;;11.60;99.90;;;;;;4956934;28;20043;-79
2023/09/23 23:05:06;;;;;;;16.25;10.75;;;11.60;99.90;;;;;;4933836;29;20508;-79
2023/09/23 23:07:32;;;;;;;15.57;10.68;;;11.50;99.90;;;;;;4956612;29;20599;-79
2023/09/23 23:09:57;;;;;;;26.90;14.68;;;11.60;99.90;;;;;;4946083;29;20086;-79
2023/09/23 23:12:23;;;;;;;13.85;10.43;;;11.50;99.90;;;;;;4976260;23;20039;-84
2023/09/23 23:14:51;;;;;;;19.13;12.40;;;11.50;99.90;;;;;;4951031;28;20047;-84
2023/09/23 23:17:17;;;;;;;28.92;16.77;;;11.60;99.90;;;;;;4972449;28;20053;-84
2023/09/23 23:19:43;;;;;;;16.00;12.75;;;11.60;99.90;;;;;;4951352;28;20038;-84
2023/09/23 23:22:08;;;;;;;16.08;11.70;;;11.60;99.90;;;;;;4951063;28;20038;-84
2023/09/23 23:24:34;;;;;;;15.20;12.13;;;11.70;99.90;;;;;;4943586;28;20046;-84
2023/09/23 23:27:00;;;;;;;38.10;21.23;;;11.70;99.90;;;;;;4956864;28;20415;-84
2023/09/23 23:29:27;;;;;;;34.45;20.08;;;11.70;99.90;;;;;;4936131;28;20051;-84
2023/09/23 23:31:52;;;;;;;16.35;14.65;;;11.70;99.90;;;;;;4952714;28;20413;-84
2023/09/23 23:34:18;;;;;;;24.73;17.05;;;11.80;99.90;;;;;;4961198;28;20035;-84
2023/09/23 23:36:44;;;;;;;47.60;23.75;;;11.80;99.90;;;;;;4947818;28;20030;-84
2023/09/23 23:39:13;;;;;;;17.33;14.23;;;11.90;99.90;;;;;;4942790;29;20035;-84
2023/09/23 23:41:38;;;;;;;38.60;20.85;;;11.90;99.90;;;;;;4943198;28;20384;-84
2023/09/23 23:44:05;;;;;;;30.52;20.23;;;11.90;99.90;;;;;;4951476;28;20042;-84
2023/09/23 23:46:30;;;;;;;15.25;13.77;;;11.90;99.90;;;;;;4950733;28;20046;-84
2023/09/23 23:48:56;;;;;;;14.65;13.10;;;11.90;99.90;;;;;;4942860;28;20039;-84
2023/09/23 23:51:27;;;;;;;31.10;19.52;;;11.80;99.90;;;;;;4943451;28;20126;-84
2023/09/23 23:53:52;;;;;;;34.22;18.58;;;11.80;99.90;;;;;;4950438;28;20117;-84
2023/09/23 23:56:18;;;;;;;15.50;13.15;;;11.80;99.90;;;;;;4948885;28;20085;-84
2023/09/23 23:58:44;;;;;;;38.20;21.83;;;11.70;99.90;;;;;;4958382;28;20042;-84
